createdAt,value
2022-10-11T00:02:52.351Z,8.20
2022-10-11T00:05:54.442Z,8.18
2022-10-11T00:08:56.108Z,8.15
2022-10-11T00:11:58.052Z,8.15
2022-10-11T00:15:01.040Z,8.17
2022-10-11T00:18:05.556Z,8.23
2022-10-11T00:21:08.442Z,8.18
2022-10-11T00:24:10.256Z,8.20
2022-10-11T00:27:11.828Z,8.24
2022-10-11T00:30:15.003Z,8.25
2022-10-11T00:33:16.549Z,8.26
2022-10-11T00:36:18.917Z,8.26
2022-10-11T00:39:21.221Z,8.30
2022-10-11T00:42:23.502Z,8.27
2022-10-11T00:45:43.863Z,8.19
2022-10-11T00:48:49.026Z,8.17
2022-10-11T00:51:52.605Z,8.13
2022-10-11T00:54:54.101Z,8.10
2022-10-11T00:57:56.551Z,8.13
2022-10-11T01:00:58.466Z,8.17
2022-10-11T01:04:01.794Z,8.24
2022-10-11T01:07:03.682Z,8.24
2022-10-11T01:10:05.599Z,8.20
2022-10-11T01:13:11.508Z,8.19
2022-10-11T01:16:15.758Z,8.16
2022-10-11T01:19:30.903Z,8.16
2022-10-11T01:22:50.793Z,8.12
2022-10-11T01:26:06.221Z,8.12
2022-10-11T01:29:12.566Z,8.09
2022-10-11T01:32:17.268Z,8.08
2022-10-11T01:35:21.580Z,8.06
2022-10-11T01:38:28.063Z,8.06
2022-10-11T01:41:31.605Z,8.09
2022-10-11T01:44:34.568Z,8.05
2022-10-11T01:47:41.158Z,8.02
2022-10-11T01:50:44.611Z,7.99
2022-10-11T01:53:52.861Z,8.02
2022-10-11T01:57:04.576Z,8.03
2022-10-11T02:00:12.194Z,8.00
2022-10-11T02:03:21.086Z,7.96
2022-10-11T02:06:26.981Z,7.96
2022-10-11T02:09:33.959Z,7.95
2022-10-11T02:12:37.737Z,7.98
2022-10-11T02:15:40.638Z,8.01
2022-10-11T02:18:46.933Z,7.99
2022-10-11T02:22:04.139Z,7.99
2022-10-11T02:25:08.129Z,7.97
2022-10-11T02:28:11.767Z,7.96
2022-10-11T02:31:15.256Z,7.94
2022-10-11T02:34:23.378Z,7.92
2022-10-11T02:37:28.093Z,7.92
2022-10-11T02:40:31.189Z,7.87
2022-10-11T02:43:36.852Z,7.83
2022-10-11T02:46:39.185Z,7.81
2022-10-11T02:49:42.216Z,7.82
2022-10-11T02:52:43.963Z,7.82
2022-10-11T02:55:45.945Z,7.81
2022-10-11T02:58:47.513Z,7.77
2022-10-11T03:01:49.262Z,7.77
2022-10-11T03:04:52.718Z,7.77
2022-10-11T03:07:54.382Z,7.73
2022-10-11T03:10:56.101Z,7.70
2022-10-11T03:13:57.684Z,7.67
2022-10-11T03:17:12.297Z,7.69
2022-10-11T03:20:20.527Z,7.59
2022-10-11T03:23:22.176Z,7.50
2022-10-11T03:26:23.761Z,7.45
2022-10-11T03:29:25.477Z,7.45
2022-10-11T03:32:27.406Z,7.48
2022-10-11T03:35:30.452Z,7.45
2022-10-11T03:38:32.246Z,7.45
2022-10-11T03:41:33.822Z,7.39
2022-10-11T03:44:35.419Z,7.36
2022-10-11T03:47:37.865Z,7.35
2022-10-11T03:50:40.780Z,7.40
2022-10-11T03:53:42.344Z,7.45
2022-10-11T03:56:44.491Z,7.48
2022-10-11T03:59:46.077Z,7.51
2022-10-11T04:02:49.927Z,7.47
2022-10-11T04:05:53.031Z,7.44
2022-10-11T04:08:55.674Z,7.45
2022-10-11T04:11:59.871Z,7.46
2022-10-11T04:15:01.523Z,7.49
2022-10-11T04:18:03.080Z,7.54
2022-10-11T04:21:06.388Z,7.59
2022-10-11T04:24:09.674Z,7.58
2022-10-11T04:27:11.163Z,7.58
2022-10-11T04:30:13.463Z,7.56
2022-10-11T04:33:15.059Z,7.53
2022-10-11T04:36:18.653Z,7.51
2022-10-11T04:39:20.642Z,7.49
2022-10-11T04:42:22.356Z,7.55
2022-10-11T04:45:23.889Z,7.56
2022-10-11T04:48:25.647Z,7.51
2022-10-11T04:51:28.957Z,7.52
2022-10-11T04:54:30.531Z,7.53
2022-10-11T04:57:32.124Z,7.51
2022-10-11T05:00:33.794Z,7.51
2022-10-11T05:03:35.562Z,7.54
2022-10-11T05:06:38.887Z,7.53
2022-10-11T05:09:40.501Z,7.52
2022-10-11T05:12:41.998Z,7.52
2022-10-11T05:15:43.755Z,7.53
2022-10-11T05:18:48.303Z,7.54
2022-10-11T05:21:51.291Z,7.55
2022-10-11T05:24:52.929Z,7.53
2022-10-11T05:27:54.473Z,7.52
2022-10-11T05:30:56.382Z,7.50
2022-10-11T05:33:58.151Z,7.50
2022-10-11T05:37:01.115Z,7.49
2022-10-11T05:40:02.651Z,7.48
2022-10-11T05:43:04.481Z,7.48
2022-10-11T05:46:06.857Z,7.48
2022-10-11T05:49:09.346Z,7.49
2022-10-11T05:52:13.457Z,7.48
2022-10-11T05:55:15.170Z,7.48
2022-10-11T05:58:18.987Z,7.48
2022-10-11T06:01:21.849Z,7.47
2022-10-11T06:04:23.589Z,7.46
2022-10-11T06:07:26.734Z,7.46
2022-10-11T06:10:28.481Z,7.47
2022-10-11T06:13:30.130Z,7.46
2022-10-11T06:16:31.758Z,7.47
2022-10-11T06:19:33.514Z,7.46
2022-10-11T06:22:36.919Z,7.41
2022-10-11T06:25:38.435Z,7.47
2022-10-11T06:28:40.086Z,7.49
2022-10-11T06:31:41.787Z,7.50
2022-10-11T06:34:43.304Z,7.52
2022-10-11T06:37:46.517Z,7.52
2022-10-11T06:40:48.266Z,7.53
2022-10-11T06:43:49.934Z,7.54
2022-10-11T06:46:51.635Z,7.59
2022-10-11T06:49:53.098Z,7.57
2022-10-11T06:52:56.290Z,7.61
2022-10-11T06:56:01.915Z,7.65
2022-10-11T06:59:03.954Z,7.67
2022-10-11T07:02:05.563Z,7.70
2022-10-11T07:05:07.661Z,7.73
2022-10-11T07:08:10.891Z,7.75
2022-10-11T07:11:16.438Z,7.78
2022-10-11T07:14:17.930Z,7.83
2022-10-11T07:17:19.707Z,7.85
2022-10-11T07:20:21.369Z,7.87
2022-10-11T07:23:25.225Z,7.89
2022-10-11T07:26:26.853Z,7.92
2022-10-11T07:29:28.457Z,7.95
2022-10-11T07:32:30.163Z,7.95
2022-10-11T07:35:34.154Z,7.96
2022-10-11T07:38:38.743Z,7.96
2022-10-11T07:41:44.769Z,8.03
2022-10-11T07:44:47.546Z,8.05
2022-10-11T07:47:49.313Z,8.07
2022-10-11T07:50:50.847Z,8.11
2022-10-11T07:53:54.526Z,8.14
2022-10-11T07:56:56.435Z,8.13
2022-10-11T07:59:57.992Z,8.21
2022-10-11T08:03:04.476Z,8.26
2022-10-11T08:06:07.612Z,8.32
2022-10-11T08:09:12.798Z,8.36
2022-10-11T08:12:14.561Z,8.41
2022-10-11T08:15:16.181Z,8.42
2022-10-11T08:18:18.413Z,8.46
2022-10-11T08:21:20.556Z,8.48
2022-10-11T08:24:25.088Z,8.49
2022-10-11T08:27:26.715Z,8.56
2022-10-11T08:30:28.421Z,8.59
2022-10-11T08:33:31.080Z,8.59
2022-10-11T08:36:33.364Z,8.59
2022-10-11T08:39:36.910Z,8.65
2022-10-11T08:42:41.634Z,8.75
2022-10-11T08:45:45.575Z,8.74
2022-10-11T08:48:48.597Z,8.76
2022-10-11T08:51:52.855Z,8.82
2022-10-11T08:54:58.384Z,8.86
2022-10-11T08:58:02.179Z,8.88
2022-10-11T09:01:04.101Z,8.91
2022-10-11T09:04:06.234Z,8.96
2022-10-11T09:07:13.444Z,9.00
2022-10-11T09:10:29.416Z,9.11
2022-10-11T09:13:44.070Z,9.08
2022-10-11T09:16:52.543Z,9.17
2022-10-11T09:20:02.789Z,9.27
2022-10-11T09:23:10.527Z,9.40
2022-10-11T09:26:23.148Z,9.43
2022-10-11T09:29:32.720Z,9.42
2022-10-11T09:32:37.356Z,9.56
2022-10-11T09:35:40.982Z,9.67
2022-10-11T09:38:49.558Z,9.66
2022-10-11T09:41:55.785Z,9.66
2022-10-11T09:44:57.656Z,9.67
2022-10-11T09:48:06.387Z,9.68
2022-10-11T09:51:12.810Z,9.71
2022-10-11T09:54:14.441Z,9.90
2022-10-11T09:57:21.816Z,9.96
2022-10-11T10:00:24.486Z,9.97
2022-10-11T10:03:27.728Z,10.07
2022-10-11T10:06:29.368Z,10.27
2022-10-11T10:09:31.136Z,10.29
2022-10-11T10:12:34.054Z,10.34
2022-10-11T10:15:38.256Z,10.27
2022-10-11T10:18:44.112Z,10.26
2022-10-11T10:21:46.909Z,10.38
2022-10-11T10:24:49.523Z,10.55
2022-10-11T10:28:00.630Z,10.56
2022-10-11T10:31:02.515Z,10.57
2022-10-11T10:34:06.481Z,10.60
2022-10-11T10:37:13.347Z,10.62
2022-10-11T10:40:17.146Z,10.72
2022-10-11T10:43:22.029Z,10.65
2022-10-11T10:46:36.040Z,10.75
2022-10-11T10:49:55.746Z,10.81
2022-10-11T10:53:04.458Z,10.78
2022-10-11T10:56:10.012Z,10.77
2022-10-11T10:59:20.174Z,10.82
2022-10-11T11:05:48.485Z,10.95
2022-10-11T11:08:57.160Z,11.04
2022-10-11T11:12:03.287Z,11.06
2022-10-11T11:15:10.264Z,11.14
2022-10-11T11:18:20.449Z,11.18
2022-10-11T11:21:30.133Z,11.14
2022-10-11T11:24:40.272Z,11.19
2022-10-11T11:27:51.293Z,11.25
2022-10-11T11:30:58.517Z,11.35
2022-10-11T11:34:05.237Z,11.28
2022-10-11T11:37:16.545Z,11.33
2022-10-11T11:40:20.138Z,11.33
2022-10-11T11:43:24.068Z,11.39
2022-10-11T11:46:29.077Z,11.41
2022-10-11T11:49:35.833Z,11.43
2022-10-11T11:52:40.768Z,11.53
2022-10-11T11:55:48.377Z,11.55
2022-10-11T11:58:53.755Z,11.52
2022-10-11T12:02:02.315Z,11.46
2022-10-11T12:05:06.030Z,11.41
2022-10-11T12:08:08.897Z,11.44
2022-10-11T12:11:19.552Z,11.57
2022-10-11T12:14:34.070Z,11.62
2022-10-11T12:17:58.489Z,11.63
2022-10-11T12:21:05.848Z,11.68
2022-10-11T12:24:12.235Z,11.71
2022-10-11T12:27:29.015Z,11.68
2022-10-11T12:31:01.045Z,11.66
2022-10-11T12:34:21.345Z,11.64
2022-10-11T12:37:41.569Z,11.57
2022-10-11T12:40:47.283Z,11.55
2022-10-11T12:44:04.086Z,11.49
2022-10-11T12:47:16.138Z,11.37
2022-10-11T12:50:19.939Z,11.36
2022-10-11T12:53:32.386Z,11.64
2022-10-11T12:56:42.695Z,11.71
2022-10-11T12:59:45.494Z,11.65
2022-10-11T13:02:48.239Z,11.50
2022-10-11T13:05:53.743Z,11.55
2022-10-11T13:09:00.096Z,11.56
2022-10-11T13:12:05.542Z,11.48
2022-10-11T13:15:12.068Z,11.55
2022-10-11T13:18:14.398Z,11.71
2022-10-11T13:21:26.017Z,11.71
2022-10-11T13:24:28.617Z,11.78
2022-10-11T13:27:31.760Z,11.89
2022-10-11T13:30:34.877Z,11.82
2022-10-11T13:33:40.211Z,11.85
2022-10-11T13:36:42.541Z,11.92
2022-10-11T13:39:45.453Z,11.96
2022-10-11T13:42:49.383Z,12.03
2022-10-11T13:45:52.184Z,12.02
2022-10-11T13:48:58.335Z,12.09
2022-10-11T13:52:01.511Z,12.14
2022-10-11T13:55:10.480Z,12.17
2022-10-11T13:58:18.740Z,12.15
2022-10-11T14:01:23.841Z,12.14
2022-10-11T14:04:29.471Z,12.12
2022-10-11T14:07:37.383Z,12.15
2022-10-11T14:10:39.337Z,12.17
2022-10-11T14:13:43.439Z,12.19
2022-10-11T14:16:54.555Z,12.17
2022-10-11T14:20:11.218Z,12.24
2022-10-11T14:23:14.350Z,12.23
2022-10-11T14:26:18.927Z,12.21
2022-10-11T14:29:26.657Z,12.17
2022-10-11T14:32:30.879Z,12.14
2022-10-11T14:35:32.645Z,12.11
2022-10-11T14:38:34.205Z,12.02
2022-10-11T14:41:35.979Z,11.95
2022-10-11T14:44:39.077Z,11.90
2022-10-11T14:47:43.092Z,11.92
2022-10-11T14:50:47.860Z,11.89
2022-10-11T14:53:49.561Z,11.82
2022-10-11T14:56:51.854Z,11.79
2022-10-11T14:59:55.190Z,11.79
2022-10-11T15:02:57.427Z,11.78
2022-10-11T15:05:58.987Z,11.78
2022-10-11T15:09:00.583Z,11.84
2022-10-11T15:12:02.175Z,11.85
2022-10-11T15:15:06.357Z,11.80
2022-10-11T15:18:11.143Z,11.80
2022-10-11T15:21:22.418Z,11.76
2022-10-11T15:24:25.894Z,11.70
2022-10-11T15:27:28.728Z,11.71
2022-10-11T15:30:37.137Z,11.73
2022-10-11T15:33:42.091Z,11.74
2022-10-11T15:36:44.135Z,11.72
2022-10-11T15:39:45.748Z,11.70
2022-10-11T15:42:47.508Z,11.72
2022-10-11T15:45:50.566Z,11.70
2022-10-11T15:48:52.592Z,11.71
2022-10-11T15:51:54.426Z,11.63
2022-10-11T15:54:56.111Z,11.57
2022-10-11T15:57:58.372Z,11.55
2022-10-11T16:01:05.799Z,11.45
2022-10-11T16:04:07.998Z,11.38
2022-10-11T16:07:09.584Z,11.32
2022-10-11T16:10:11.211Z,11.25
2022-10-11T16:13:12.899Z,11.18
2022-10-11T16:16:15.883Z,11.10
2022-10-11T16:19:17.417Z,11.05
2022-10-11T16:22:19.223Z,11.06
2022-10-11T16:25:21.711Z,10.84
2022-10-11T16:28:23.436Z,10.67
2022-10-11T16:31:26.577Z,10.68
2022-10-11T16:34:28.352Z,10.61
2022-10-11T16:37:31.005Z,10.68
2022-10-11T16:40:35.160Z,10.62
2022-10-11T16:43:37.442Z,10.37
2022-10-11T16:46:40.514Z,10.22
2022-10-11T16:49:42.177Z,10.09
2022-10-11T16:52:43.758Z,9.98
2022-10-11T16:55:45.333Z,9.86
2022-10-11T16:58:47.001Z,9.75
2022-10-11T17:01:50.707Z,9.65
2022-10-11T17:04:53.996Z,9.54
2022-10-11T17:07:56.073Z,9.47
2022-10-11T17:10:58.254Z,9.39
2022-10-11T17:14:00.777Z,9.42
2022-10-11T17:17:04.662Z,9.30
2022-10-11T17:20:07.814Z,9.20
2022-10-11T17:23:09.554Z,9.10
2022-10-11T17:26:14.871Z,9.04
2022-10-11T17:29:17.172Z,8.95
2022-10-11T17:32:20.140Z,8.97
2022-10-11T17:35:21.931Z,8.93
2022-10-11T17:38:27.302Z,8.84
2022-10-11T17:41:32.043Z,8.84
2022-10-11T17:44:35.072Z,8.75
2022-10-11T17:47:39.164Z,8.76
2022-10-11T17:50:41.840Z,8.85
2022-10-11T17:53:43.815Z,8.79
2022-10-11T17:56:45.484Z,8.70
2022-10-11T17:59:47.211Z,8.61
2022-10-11T18:02:50.532Z,8.62
2022-10-11T18:05:52.611Z,8.60
2022-10-11T18:08:54.677Z,8.56
2022-10-11T18:11:56.307Z,8.63
2022-10-11T18:14:58.072Z,8.52
2022-10-11T18:18:01.369Z,8.44
2022-10-11T18:21:03.345Z,8.35
2022-10-11T18:24:06.241Z,8.26
2022-10-11T18:27:08.018Z,8.18
2022-10-11T18:30:10.093Z,8.11
2022-10-11T18:33:13.581Z,8.11
2022-10-11T18:36:16.392Z,8.05
2022-10-11T18:39:19.292Z,7.99
2022-10-11T18:42:21.508Z,8.08
2022-10-11T18:45:23.177Z,8.21
2022-10-11T18:48:27.501Z,8.08
2022-10-11T18:51:30.141Z,8.00
2022-10-11T18:54:32.165Z,7.89
2022-10-11T18:57:34.599Z,7.80
2022-10-11T19:00:41.184Z,7.76
2022-10-11T19:03:44.846Z,7.74
2022-10-11T19:06:50.577Z,7.69
2022-10-11T19:09:52.134Z,7.64
2022-10-11T19:12:54.827Z,7.79
2022-10-11T19:15:56.457Z,7.87
2022-10-11T19:18:59.966Z,7.83
2022-10-11T19:22:03.294Z,7.80
2022-10-11T19:25:05.247Z,7.95
2022-10-11T19:28:06.830Z,8.02
2022-10-11T19:31:18.029Z,7.97
2022-10-11T19:34:21.635Z,7.80
2022-10-11T19:37:23.251Z,7.65
2022-10-11T19:40:24.999Z,7.58
2022-10-11T19:43:26.568Z,7.50
2022-10-11T19:49:51.238Z,7.55
2022-10-11T19:52:52.839Z,7.68
2022-10-11T19:55:54.287Z,7.53
2022-10-11T19:58:56.006Z,7.61
2022-10-11T20:01:57.752Z,7.58
2022-10-11T20:05:00.841Z,7.61
2022-10-11T20:08:02.431Z,7.64
2022-10-11T20:11:04.939Z,7.61
2022-10-11T20:14:06.726Z,7.58
2022-10-11T20:17:08.223Z,7.57
2022-10-11T20:20:11.418Z,7.70
2022-10-11T20:23:17.657Z,7.55
2022-10-11T20:26:24.617Z,7.52
2022-10-11T20:29:29.197Z,7.49
2022-10-11T20:32:31.166Z,7.43
2022-10-11T20:35:34.209Z,7.31
2022-10-11T20:38:36.488Z,7.45
2022-10-11T20:41:40.063Z,7.59
2022-10-11T20:44:43.725Z,7.42
2022-10-11T20:47:45.506Z,7.25
2022-10-11T20:50:48.487Z,7.13
2022-10-11T20:53:50.732Z,7.12
2022-10-11T20:56:52.415Z,7.07
2022-10-11T20:59:54.161Z,7.02
2022-10-11T21:02:55.902Z,6.93
2022-10-11T21:06:00.051Z,6.86
2022-10-11T21:09:01.886Z,6.82
2022-10-11T21:12:03.781Z,6.78
2022-10-11T21:15:05.945Z,6.79
2022-10-11T21:18:08.100Z,6.78
2022-10-11T21:21:12.319Z,6.90
2022-10-11T21:24:14.918Z,6.99
2022-10-11T21:27:16.684Z,7.08
2022-10-11T21:30:18.587Z,7.13
2022-10-11T21:33:20.437Z,7.04
2022-10-11T21:36:24.994Z,6.87
2022-10-11T21:39:26.772Z,6.77
2022-10-11T21:42:29.687Z,6.66
2022-10-11T21:45:31.391Z,6.65
2022-10-11T21:48:33.523Z,6.75
2022-10-11T21:51:36.727Z,6.82
2022-10-11T21:54:38.769Z,6.76
2022-10-11T21:57:41.308Z,6.75
2022-10-11T22:00:43.518Z,6.85
2022-10-11T22:03:45.817Z,6.74
2022-10-11T22:06:49.475Z,6.63
2022-10-11T22:09:51.157Z,6.53
2022-10-11T22:12:53.034Z,6.45
2022-10-11T22:15:56.432Z,6.41
2022-10-11T22:18:58.016Z,6.35
2022-10-11T22:22:01.637Z,6.33
2022-10-11T22:25:03.553Z,6.27
2022-10-11T22:28:05.610Z,6.29
2022-10-11T22:31:07.703Z,6.29
2022-10-11T22:34:09.409Z,6.34
2022-10-11T22:37:12.348Z,6.37
2022-10-11T22:40:13.930Z,6.41
2022-10-11T22:43:15.601Z,6.27
2022-10-11T22:46:17.301Z,6.23
2022-10-11T22:49:18.972Z,6.19
2022-10-11T22:52:22.223Z,6.12
2022-10-11T22:55:26.006Z,6.04
2022-10-11T22:58:27.681Z,6.02
2022-10-11T23:01:29.395Z,6.01
2022-10-11T23:04:31.175Z,5.98
2022-10-11T23:07:34.653Z,5.96
2022-10-11T23:10:38.199Z,5.94
2022-10-11T23:13:40.046Z,5.94
2022-10-11T23:16:41.719Z,5.93
2022-10-11T23:19:43.658Z,5.90
2022-10-11T23:22:46.704Z,5.90
2022-10-11T23:25:48.329Z,5.90
2022-10-11T23:28:53.564Z,5.88
2022-10-11T23:31:55.361Z,5.87
2022-10-11T23:34:56.932Z,5.86
2022-10-11T23:38:00.122Z,5.84
2022-10-11T23:41:01.840Z,5.81
2022-10-11T23:44:03.302Z,5.79
2022-10-11T23:47:04.918Z,5.77
2022-10-11T23:50:07.158Z,5.76
2022-10-11T23:53:13.786Z,5.76
2022-10-11T23:56:15.377Z,5.76
2022-10-11T23:59:18.449Z,5.77
